sensor_id;sensor_type;location;lat;lon;timestamp;temperature;humidity
7972;DHT22;4031;49.758;6.120;2023-04-24T00:00:16;8.50;99.90
7972;DHT22;4031;49.758;6.120;2023-04-24T00:02:43;8.50;99.90
7972;DHT22;4031;49.758;6.120;2023-04-24T00:05:14;8.50;99.90
7972;DHT22;4031;49.758;6.120;2023-04-24T00:07:44;8.60;99.90
7972;DHT22;4031;49.758;6.120;2023-04-24T00:10:11;8.60;99.90
7972;DHT22;4031;49.758;6.120;2023-04-24T00:12:38;8.50;99.90
7972;DHT22;4031;49.758;6.120;2023-04-24T00:15:04;8.50;99.90
7972;DHT22;4031;49.758;6.120;2023-04-24T00:17:31;8.50;99.90
7972;DHT22;4031;49.758;6.120;2023-04-24T00:19:57;8.50;99.90
7972;DHT22;4031;49.758;6.120;2023-04-24T00:22:30;8.50;99.90
7972;DHT22;4031;49.758;6.120;2023-04-24T00:24:56;8.50;99.90
7972;DHT22;4031;49.758;6.120;2023-04-24T00:27:22;8.50;99.90
7972;DHT22;4031;49.758;6.120;2023-04-24T00:29:48;8.50;99.90
7972;DHT22;4031;49.758;6.120;2023-04-24T00:32:14;8.50;99.90
7972;DHT22;4031;49.758;6.120;2023-04-24T00:34:41;8.40;99.90
7972;DHT22;4031;49.758;6.120;2023-04-24T00:37:06;8.40;99.90
7972;DHT22;4031;49.758;6.120;2023-04-24T00:39:33;8.30;99.90
7972;DHT22;4031;49.758;6.120;2023-04-24T00:41:58;8.40;99.90
7972;DHT22;4031;49.758;6.120;2023-04-24T00:44:25;8.30;99.90
7972;DHT22;4031;49.758;6.120;2023-04-24T00:46:50;8.30;99.90
7972;DHT22;4031;49.758;6.120;2023-04-24T00:49:20;8.30;99.90
7972;DHT22;4031;49.758;6.120;2023-04-24T00:51:46;8.30;99.90
7972;DHT22;4031;49.758;6.120;2023-04-24T00:54:15;8.20;99.90
7972;DHT22;4031;49.758;6.120;2023-04-24T00:56:42;8.20;99.90
7972;DHT22;4031;49.758;6.120;2023-04-24T00:59:09;8.10;99.90
7972;DHT22;4031;49.758;6.120;2023-04-24T01:01:35;8.00;99.90
7972;DHT22;4031;49.758;6.120;2023-04-24T01:04:02;7.80;99.90
7972;DHT22;4031;49.758;6.120;2023-04-24T01:06:29;7.70;99.90
7972;DHT22;4031;49.758;6.120;2023-04-24T01:08:58;7.60;99.90
7972;DHT22;4031;49.758;6.120;2023-04-24T01:11:25;7.50;99.90
7972;DHT22;4031;49.758;6.120;2023-04-24T01:13:52;7.50;99.90
7972;DHT22;4031;49.758;6.120;2023-04-24T01:16:19;7.40;99.90
7972;DHT22;4031;49.758;6.120;2023-04-24T01:18:46;7.50;99.90
7972;DHT22;4031;49.758;6.120;2023-04-24T01:21:14;7.30;99.90
7972;DHT22;4031;49.758;6.120;2023-04-24T01:23:43;7.20;99.90
7972;DHT22;4031;49.758;6.120;2023-04-24T01:26:09;7.20;99.90
7972;DHT22;4031;49.758;6.120;2023-04-24T01:28:35;7.10;99.90
7972;DHT22;4031;49.758;6.120;2023-04-24T01:31:01;7.10;99.90
7972;DHT22;4031;49.758;6.120;2023-04-24T01:33:27;7.10;99.90
7972;DHT22;4031;49.758;6.120;2023-04-24T01:35:52;7.00;99.90
7972;DHT22;4031;49.758;6.120;2023-04-24T01:38:19;6.90;99.90
7972;DHT22;4031;49.758;6.120;2023-04-24T01:40:45;6.90;99.90
7972;DHT22;4031;49.758;6.120;2023-04-24T01:43:12;6.90;99.90
7972;DHT22;4031;49.758;6.120;2023-04-24T01:45:38;6.90;99.90
7972;DHT22;4031;49.758;6.120;2023-04-24T01:48:04;6.80;99.90
7972;DHT22;4031;49.758;6.120;2023-04-24T01:50:30;6.80;99.90
7972;DHT22;4031;49.758;6.120;2023-04-24T01:52:56;6.70;99.90
7972;DHT22;4031;49.758;6.120;2023-04-24T01:55:22;6.70;99.90
7972;DHT22;4031;49.758;6.120;2023-04-24T01:57:47;6.60;99.90
7972;DHT22;4031;49.758;6.120;2023-04-24T02:00:14;6.50;99.90
7972;DHT22;4031;49.758;6.120;2023-04-24T02:02:40;6.50;99.90
7972;DHT22;4031;49.758;6.120;2023-04-24T02:05:07;6.50;99.90
7972;DHT22;4031;49.758;6.120;2023-04-24T02:07:33;6.50;99.90
7972;DHT22;4031;49.758;6.120;2023-04-24T02:09:59;6.50;99.90
7972;DHT22;4031;49.758;6.120;2023-04-24T02:12:25;6.40;99.90
7972;DHT22;4031;49.758;6.120;2023-04-24T02:14:50;6.30;99.90
7972;DHT22;4031;49.758;6.120;2023-04-24T02:17:17;6.30;99.90
7972;DHT22;4031;49.758;6.120;2023-04-24T02:19:44;6.20;99.90
7972;DHT22;4031;49.758;6.120;2023-04-24T02:22:10;6.20;99.90
7972;DHT22;4031;49.758;6.120;2023-04-24T02:24:36;6.20;99.90
7972;DHT22;4031;49.758;6.120;2023-04-24T02:27:02;6.20;99.90
7972;DHT22;4031;49.758;6.120;2023-04-24T02:29:28;6.10;99.90
7972;DHT22;4031;49.758;6.120;2023-04-24T02:31:54;6.10;99.90
7972;DHT22;4031;49.758;6.120;2023-04-24T02:34:20;6.10;99.90
7972;DHT22;4031;49.758;6.120;2023-04-24T02:36:45;6.20;99.90
7972;DHT22;4031;49.758;6.120;2023-04-24T02:39:11;6.30;99.90
7972;DHT22;4031;49.758;6.120;2023-04-24T02:41:38;6.40;99.90
7972;DHT22;4031;49.758;6.120;2023-04-24T02:44:04;6.50;99.90
7972;DHT22;4031;49.758;6.120;2023-04-24T02:46:30;6.50;99.90
7972;DHT22;4031;49.758;6.120;2023-04-24T02:48:55;6.50;99.90
7972;DHT22;4031;49.758;6.120;2023-04-24T02:51:21;6.50;99.90
7972;DHT22;4031;49.758;6.120;2023-04-24T02:53:47;6.50;99.90
7972;DHT22;4031;49.758;6.120;2023-04-24T02:56:12;6.60;99.90
7972;DHT22;4031;49.758;6.120;2023-04-24T02:58:38;6.60;99.90
7972;DHT22;4031;49.758;6.120;2023-04-24T03:01:04;6.70;99.90
7972;DHT22;4031;49.758;6.120;2023-04-24T03:03:30;6.70;99.90
7972;DHT22;4031;49.758;6.120;2023-04-24T03:05:56;6.80;99.90
7972;DHT22;4031;49.758;6.120;2023-04-24T03:08:22;6.80;99.90
7972;DHT22;4031;49.758;6.120;2023-04-24T03:10:48;6.80;99.90
7972;DHT22;4031;49.758;6.120;2023-04-24T03:13:15;6.80;99.90
7972;DHT22;4031;49.758;6.120;2023-04-24T03:15:42;6.80;99.90
7972;DHT22;4031;49.758;6.120;2023-04-24T03:18:07;6.80;99.90
7972;DHT22;4031;49.758;6.120;2023-04-24T03:20:33;6.90;99.90
7972;DHT22;4031;49.758;6.120;2023-04-24T03:22:59;6.90;99.90
7972;DHT22;4031;49.758;6.120;2023-04-24T03:25:24;7.00;99.90
7972;DHT22;4031;49.758;6.120;2023-04-24T03:27:51;7.00;99.90
7972;DHT22;4031;49.758;6.120;2023-04-24T03:30:16;7.00;99.90
7972;DHT22;4031;49.758;6.120;2023-04-24T03:32:42;7.00;99.90
7972;DHT22;4031;49.758;6.120;2023-04-24T03:35:08;7.00;99.90
7972;DHT22;4031;49.758;6.120;2023-04-24T03:37:34;7.10;99.90
7972;DHT22;4031;49.758;6.120;2023-04-24T03:40:00;7.10;99.90
7972;DHT22;4031;49.758;6.120;2023-04-24T03:42:26;7.10;99.90
7972;DHT22;4031;49.758;6.120;2023-04-24T03:44:52;7.10;99.90
7972;DHT22;4031;49.758;6.120;2023-04-24T03:47:18;7.10;99.90
7972;DHT22;4031;49.758;6.120;2023-04-24T03:49:44;7.20;99.90
7972;DHT22;4031;49.758;6.120;2023-04-24T03:52:09;7.20;99.90
7972;DHT22;4031;49.758;6.120;2023-04-24T03:54:35;7.20;99.90
7972;DHT22;4031;49.758;6.120;2023-04-24T03:57:01;7.10;99.90
7972;DHT22;4031;49.758;6.120;2023-04-24T03:59:27;7.10;99.90
7972;DHT22;4031;49.758;6.120;2023-04-24T04:01:52;7.00;99.90
7972;DHT22;4031;49.758;6.120;2023-04-24T04:04:18;7.00;99.90
7972;DHT22;4031;49.758;6.120;2023-04-24T04:06:44;6.90;99.90
7972;DHT22;4031;49.758;6.120;2023-04-24T04:09:10;6.90;99.90
7972;DHT22;4031;49.758;6.120;2023-04-24T04:11:36;6.90;99.90
7972;DHT22;4031;49.758;6.120;2023-04-24T04:14:02;6.90;99.90
7972;DHT22;4031;49.758;6.120;2023-04-24T04:16:28;6.90;99.90
7972;DHT22;4031;49.758;6.120;2023-04-24T04:18:53;6.90;99.90
7972;DHT22;4031;49.758;6.120;2023-04-24T04:21:19;6.90;99.90
7972;DHT22;4031;49.758;6.120;2023-04-24T04:23:45;6.90;99.90
7972;DHT22;4031;49.758;6.120;2023-04-24T04:26:11;6.90;99.90
7972;DHT22;4031;49.758;6.120;2023-04-24T04:28:38;6.80;99.90
7972;DHT22;4031;49.758;6.120;2023-04-24T04:31:04;6.80;99.90
7972;DHT22;4031;49.758;6.120;2023-04-24T04:33:30;6.70;99.90
7972;DHT22;4031;49.758;6.120;2023-04-24T04:35:57;6.70;99.90
7972;DHT22;4031;49.758;6.120;2023-04-24T04:38:23;6.70;99.90
7972;DHT22;4031;49.758;6.120;2023-04-24T04:40:48;6.70;99.90
7972;DHT22;4031;49.758;6.120;2023-04-24T04:43:15;6.70;99.90
7972;DHT22;4031;49.758;6.120;2023-04-24T04:45:41;6.70;99.90
7972;DHT22;4031;49.758;6.120;2023-04-24T04:48:08;6.70;99.90
7972;DHT22;4031;49.758;6.120;2023-04-24T04:50:35;6.80;99.90
7972;DHT22;4031;49.758;6.120;2023-04-24T04:53:01;6.80;99.90
7972;DHT22;4031;49.758;6.120;2023-04-24T04:55:27;6.90;99.90
7972;DHT22;4031;49.758;6.120;2023-04-24T04:57:52;6.90;99.90
7972;DHT22;4031;49.758;6.120;2023-04-24T05:00:18;6.90;99.90
7972;DHT22;4031;49.758;6.120;2023-04-24T05:02:44;6.90;99.90
7972;DHT22;4031;49.758;6.120;2023-04-24T05:05:10;6.90;99.90
7972;DHT22;4031;49.758;6.120;2023-04-24T05:07:36;6.90;99.90
7972;DHT22;4031;49.758;6.120;2023-04-24T05:10:02;6.90;99.90
7972;DHT22;4031;49.758;6.120;2023-04-24T05:12:28;6.90;99.90
7972;DHT22;4031;49.758;6.120;2023-04-24T05:14:54;6.90;99.90
7972;DHT22;4031;49.758;6.120;2023-04-24T05:17:19;6.80;99.90
7972;DHT22;4031;49.758;6.120;2023-04-24T05:19:45;6.80;99.90
7972;DHT22;4031;49.758;6.120;2023-04-24T05:22:11;6.80;99.90
7972;DHT22;4031;49.758;6.120;2023-04-24T05:24:37;6.80;99.90
7972;DHT22;4031;49.758;6.120;2023-04-24T05:27:03;6.90;99.90
7972;DHT22;4031;49.758;6.120;2023-04-24T05:29:32;6.90;99.90
7972;DHT22;4031;49.758;6.120;2023-04-24T05:31:59;6.80;99.90
7972;DHT22;4031;49.758;6.120;2023-04-24T05:34:25;6.80;99.90
7972;DHT22;4031;49.758;6.120;2023-04-24T05:36:51;6.80;99.90
7972;DHT22;4031;49.758;6.120;2023-04-24T05:39:17;6.90;99.90
7972;DHT22;4031;49.758;6.120;2023-04-24T05:41:43;6.90;99.90
7972;DHT22;4031;49.758;6.120;2023-04-24T05:44:09;6.90;99.90
7972;DHT22;4031;49.758;6.120;2023-04-24T05:46:35;6.90;99.90
7972;DHT22;4031;49.758;6.120;2023-04-24T05:49:01;6.90;99.90
7972;DHT22;4031;49.758;6.120;2023-04-24T05:51:27;6.90;99.90
7972;DHT22;4031;49.758;6.120;2023-04-24T05:53:53;6.90;99.90
7972;DHT22;4031;49.758;6.120;2023-04-24T05:56:19;6.90;99.90
7972;DHT22;4031;49.758;6.120;2023-04-24T05:58:45;6.90;99.90
7972;DHT22;4031;49.758;6.120;2023-04-24T06:01:12;6.90;99.90
7972;DHT22;4031;49.758;6.120;2023-04-24T06:03:40;7.00;99.90
7972;DHT22;4031;49.758;6.120;2023-04-24T06:06:06;7.10;99.90
7972;DHT22;4031;49.758;6.120;2023-04-24T06:08:33;7.20;99.90
7972;DHT22;4031;49.758;6.120;2023-04-24T06:10:59;7.40;99.90
7972;DHT22;4031;49.758;6.120;2023-04-24T06:13:24;7.60;99.90
7972;DHT22;4031;49.758;6.120;2023-04-24T06:15:50;7.70;99.90
7972;DHT22;4031;49.758;6.120;2023-04-24T06:18:16;7.70;99.90
7972;DHT22;4031;49.758;6.120;2023-04-24T06:20:42;7.70;99.90
7972;DHT22;4031;49.758;6.120;2023-04-24T06:23:08;7.70;99.90
7972;DHT22;4031;49.758;6.120;2023-04-24T06:25:34;7.70;99.90
7972;DHT22;4031;49.758;6.120;2023-04-24T06:27:59;7.60;99.90
7972;DHT22;4031;49.758;6.120;2023-04-24T06:30:26;7.70;99.90
7972;DHT22;4031;49.758;6.120;2023-04-24T06:32:53;7.70;99.90
7972;DHT22;4031;49.758;6.120;2023-04-24T06:35:18;7.70;99.90
7972;DHT22;4031;49.758;6.120;2023-04-24T06:37:45;7.60;99.90
7972;DHT22;4031;49.758;6.120;2023-04-24T06:40:11;7.60;99.90
7972;DHT22;4031;49.758;6.120;2023-04-24T06:42:37;7.50;99.90
7972;DHT22;4031;49.758;6.120;2023-04-24T06:45:03;7.50;99.90
7972;DHT22;4031;49.758;6.120;2023-04-24T06:47:30;7.50;99.90
7972;DHT22;4031;49.758;6.120;2023-04-24T06:49:56;7.40;99.90
7972;DHT22;4031;49.758;6.120;2023-04-24T06:52:22;7.50;99.90
7972;DHT22;4031;49.758;6.120;2023-04-24T06:54:48;7.50;99.90
7972;DHT22;4031;49.758;6.120;2023-04-24T06:57:13;7.60;99.90
7972;DHT22;4031;49.758;6.120;2023-04-24T06:59:41;7.50;99.90
7972;DHT22;4031;49.758;6.120;2023-04-24T07:02:07;7.50;99.90
7972;DHT22;4031;49.758;6.120;2023-04-24T07:04:33;7.50;99.90
7972;DHT22;4031;49.758;6.120;2023-04-24T07:06:58;7.50;99.90
7972;DHT22;4031;49.758;6.120;2023-04-24T07:09:25;7.60;99.90
7972;DHT22;4031;49.758;6.120;2023-04-24T07:11:52;7.50;99.90
7972;DHT22;4031;49.758;6.120;2023-04-24T07:14:19;7.60;99.90
7972;DHT22;4031;49.758;6.120;2023-04-24T07:16:45;7.50;99.90
7972;DHT22;4031;49.758;6.120;2023-04-24T07:19:12;7.50;99.90
7972;DHT22;4031;49.758;6.120;2023-04-24T07:21:39;7.50;99.90
7972;DHT22;4031;49.758;6.120;2023-04-24T07:24:05;7.40;99.90
7972;DHT22;4031;49.758;6.120;2023-04-24T07:26:31;7.50;99.90
7972;DHT22;4031;49.758;6.120;2023-04-24T07:28:57;7.50;99.90
7972;DHT22;4031;49.758;6.120;2023-04-24T07:31:22;7.50;99.90
7972;DHT22;4031;49.758;6.120;2023-04-24T07:33:48;7.60;99.90
7972;DHT22;4031;49.758;6.120;2023-04-24T07:36:15;7.50;99.90
7972;DHT22;4031;49.758;6.120;2023-04-24T07:38:44;7.60;99.90
7972;DHT22;4031;49.758;6.120;2023-04-24T07:41:12;7.60;99.90
7972;DHT22;4031;49.758;6.120;2023-04-24T07:43:41;7.60;99.90
7972;DHT22;4031;49.758;6.120;2023-04-24T07:46:08;7.70;99.90
7972;DHT22;4031;49.758;6.120;2023-04-24T07:48:36;7.60;99.90
7972;DHT22;4031;49.758;6.120;2023-04-24T07:51:01;7.70;99.90
7972;DHT22;4031;49.758;6.120;2023-04-24T07:53:27;7.80;99.90
7972;DHT22;4031;49.758;6.120;2023-04-24T07:55:55;7.90;99.90
7972;DHT22;4031;49.758;6.120;2023-04-24T07:58:21;8.00;99.90
7972;DHT22;4031;49.758;6.120;2023-04-24T08:00:47;7.90;99.90
7972;DHT22;4031;49.758;6.120;2023-04-24T08:03:13;8.00;99.90
7972;DHT22;4031;49.758;6.120;2023-04-24T08:05:39;8.10;99.90
7972;DHT22;4031;49.758;6.120;2023-04-24T08:08:04;8.00;99.90
7972;DHT22;4031;49.758;6.120;2023-04-24T08:10:30;8.10;99.90
7972;DHT22;4031;49.758;6.120;2023-04-24T08:12:56;8.10;99.90
7972;DHT22;4031;49.758;6.120;2023-04-24T08:15:22;8.20;99.90
7972;DHT22;4031;49.758;6.120;2023-04-24T08:17:47;8.20;99.90
7972;DHT22;4031;49.758;6.120;2023-04-24T08:20:13;8.20;99.90
7972;DHT22;4031;49.758;6.120;2023-04-24T08:22:40;8.10;99.90
7972;DHT22;4031;49.758;6.120;2023-04-24T08:25:06;8.10;99.90
7972;DHT22;4031;49.758;6.120;2023-04-24T08:27:32;8.00;99.90
7972;DHT22;4031;49.758;6.120;2023-04-24T08:29:58;8.00;99.90
7972;DHT22;4031;49.758;6.120;2023-04-24T08:32:25;8.10;99.90
7972;DHT22;4031;49.758;6.120;2023-04-24T08:34:54;8.20;99.90
7972;DHT22;4031;49.758;6.120;2023-04-24T08:37:22;8.40;99.90
7972;DHT22;4031;49.758;6.120;2023-04-24T08:39:48;8.70;99.90
7972;DHT22;4031;49.758;6.120;2023-04-24T08:42:15;9.20;99.90
7972;DHT22;4031;49.758;6.120;2023-04-24T08:44:42;9.50;99.90
7972;DHT22;4031;49.758;6.120;2023-04-24T08:47:08;9.50;99.90
7972;DHT22;4031;49.758;6.120;2023-04-24T08:49:36;9.60;99.90
7972;DHT22;4031;49.758;6.120;2023-04-24T08:52:02;9.60;99.90
7972;DHT22;4031;49.758;6.120;2023-04-24T08:54:28;9.50;99.90
7972;DHT22;4031;49.758;6.120;2023-04-24T08:56:57;9.40;99.90
7972;DHT22;4031;49.758;6.120;2023-04-24T08:59:27;9.40;99.90
7972;DHT22;4031;49.758;6.120;2023-04-24T09:01:55;9.30;99.90
7972;DHT22;4031;49.758;6.120;2023-04-24T09:04:22;9.40;99.90
7972;DHT22;4031;49.758;6.120;2023-04-24T09:06:57;9.60;99.90
7972;DHT22;4031;49.758;6.120;2023-04-24T09:09:23;9.80;99.90
7972;DHT22;4031;49.758;6.120;2023-04-24T09:11:51;10.10;99.90
7972;DHT22;4031;49.758;6.120;2023-04-24T09:14:19;10.40;99.90
7972;DHT22;4031;49.758;6.120;2023-04-24T09:16:46;10.60;99.90
7972;DHT22;4031;49.758;6.120;2023-04-24T09:19:12;10.60;99.90
7972;DHT22;4031;49.758;6.120;2023-04-24T09:21:38;11.00;99.90
7972;DHT22;4031;49.758;6.120;2023-04-24T09:24:07;11.60;99.90
7972;DHT22;4031;49.758;6.120;2023-04-24T09:26:37;11.80;99.90
7972;DHT22;4031;49.758;6.120;2023-04-24T09:29:03;11.70;99.90
7972;DHT22;4031;49.758;6.120;2023-04-24T09:31:30;11.70;99.90
7972;DHT22;4031;49.758;6.120;2023-04-24T09:34:04;11.60;99.90
7972;DHT22;4031;49.758;6.120;2023-04-24T09:39:04;11.10;99.90
7972;DHT22;4031;49.758;6.120;2023-04-24T09:41:32;11.00;99.90
7972;DHT22;4031;49.758;6.120;2023-04-24T09:44:34;10.70;99.90
7972;DHT22;4031;49.758;6.120;2023-04-24T09:46:57;11.40;99.90
7972;DHT22;4031;49.758;6.120;2023-04-24T09:49:26;12.80;99.90
7972;DHT22;4031;49.758;6.120;2023-04-24T09:52:10;13.60;99.90
7972;DHT22;4031;49.758;6.120;2023-04-24T09:54:38;14.10;99.90
7972;DHT22;4031;49.758;6.120;2023-04-24T09:57:05;13.90;99.90
7972;DHT22;4031;49.758;6.120;2023-04-24T09:59:32;13.60;99.90
7972;DHT22;4031;49.758;6.120;2023-04-24T10:01:59;14.40;99.90
7972;DHT22;4031;49.758;6.120;2023-04-24T10:04:28;14.80;99.90
7972;DHT22;4031;49.758;6.120;2023-04-24T10:06:56;14.50;99.90
7972;DHT22;4031;49.758;6.120;2023-04-24T10:09:24;14.10;99.90
7972;DHT22;4031;49.758;6.120;2023-04-24T10:11:52;13.60;99.90
7972;DHT22;4031;49.758;6.120;2023-04-24T10:14:22;13.20;99.90
7972;DHT22;4031;49.758;6.120;2023-04-24T10:16:50;13.30;99.90
7972;DHT22;4031;49.758;6.120;2023-04-24T10:19:17;13.60;99.90
7972;DHT22;4031;49.758;6.120;2023-04-24T10:21:46;13.50;99.90
7972;DHT22;4031;49.758;6.120;2023-04-24T10:24:13;12.80;99.90
7972;DHT22;4031;49.758;6.120;2023-04-24T10:26:41;12.40;99.90
7972;DHT22;4031;49.758;6.120;2023-04-24T10:29:08;11.90;99.90
7972;DHT22;4031;49.758;6.120;2023-04-24T10:31:37;12.00;99.90
7972;DHT22;4031;49.758;6.120;2023-04-24T10:34:05;12.00;99.90
7972;DHT22;4031;49.758;6.120;2023-04-24T10:36:36;11.80;99.90
7972;DHT22;4031;49.758;6.120;2023-04-24T10:39:08;11.50;99.90
7972;DHT22;4031;49.758;6.120;2023-04-24T10:41:37;11.30;99.90
7972;DHT22;4031;49.758;6.120;2023-04-24T10:44:07;11.00;99.90
7972;DHT22;4031;49.758;6.120;2023-04-24T10:46:35;10.90;99.90
7972;DHT22;4031;49.758;6.120;2023-04-24T10:49:05;11.00;99.90
7972;DHT22;4031;49.758;6.120;2023-04-24T10:51:49;11.30;99.90
7972;DHT22;4031;49.758;6.120;2023-04-24T10:59:43;11.80;99.90
7972;DHT22;4031;49.758;6.120;2023-04-24T11:02:09;11.80;99.90
7972;DHT22;4031;49.758;6.120;2023-04-24T11:04:35;12.00;99.90
7972;DHT22;4031;49.758;6.120;2023-04-24T11:07:03;12.20;99.90
7972;DHT22;4031;49.758;6.120;2023-04-24T11:09:32;12.60;99.90
7972;DHT22;4031;49.758;6.120;2023-04-24T11:17:37;12.60;99.90
7972;DHT22;4031;49.758;6.120;2023-04-24T11:20:16;12.20;99.90
7972;DHT22;4031;49.758;6.120;2023-04-24T11:22:42;11.80;99.90
7972;DHT22;4031;49.758;6.120;2023-04-24T11:25:09;11.70;99.90
7972;DHT22;4031;49.758;6.120;2023-04-24T11:27:44;11.60;99.90
7972;DHT22;4031;49.758;6.120;2023-04-24T11:30:18;11.40;99.90
7972;DHT22;4031;49.758;6.120;2023-04-24T11:32:48;11.10;99.90
7972;DHT22;4031;49.758;6.120;2023-04-24T11:35:22;10.90;99.90
7972;DHT22;4031;49.758;6.120;2023-04-24T11:37:54;10.90;99.90
7972;DHT22;4031;49.758;6.120;2023-04-24T11:40:21;10.90;99.90
7972;DHT22;4031;49.758;6.120;2023-04-24T11:42:52;11.20;99.90
7972;DHT22;4031;49.758;6.120;2023-04-24T11:45:26;11.90;99.90
7972;DHT22;4031;49.758;6.120;2023-04-24T11:47:53;12.50;99.90
7972;DHT22;4031;49.758;6.120;2023-04-24T11:50:21;12.80;99.90
7972;DHT22;4031;49.758;6.120;2023-04-24T11:52:49;13.10;99.90
7972;DHT22;4031;49.758;6.120;2023-04-24T11:57:51;13.40;99.90
7972;DHT22;4031;49.758;6.120;2023-04-24T12:00:24;13.50;99.90
7972;DHT22;4031;49.758;6.120;2023-04-24T12:02:51;13.40;99.90
7972;DHT22;4031;49.758;6.120;2023-04-24T12:05:26;13.60;99.90
7972;DHT22;4031;49.758;6.120;2023-04-24T12:07:53;13.60;99.90
7972;DHT22;4031;49.758;6.120;2023-04-24T12:10:20;13.80;99.90
7972;DHT22;4031;49.758;6.120;2023-04-24T12:12:47;13.90;99.90
7972;DHT22;4031;49.758;6.120;2023-04-24T12:15:16;14.00;99.90
7972;DHT22;4031;49.758;6.120;2023-04-24T12:17:43;14.20;99.90
7972;DHT22;4031;49.758;6.120;2023-04-24T12:20:09;15.00;99.90
7972;DHT22;4031;49.758;6.120;2023-04-24T12:22:49;15.70;99.90
7972;DHT22;4031;49.758;6.120;2023-04-24T12:25:18;15.40;99.90
7972;DHT22;4031;49.758;6.120;2023-04-24T12:27:45;15.70;99.90
7972;DHT22;4031;49.758;6.120;2023-04-24T12:30:14;16.10;99.90
7972;DHT22;4031;49.758;6.120;2023-04-24T12:32:45;16.30;99.90
7972;DHT22;4031;49.758;6.120;2023-04-24T12:35:12;17.50;99.90
7972;DHT22;4031;49.758;6.120;2023-04-24T12:37:38;17.30;99.90
7972;DHT22;4031;49.758;6.120;2023-04-24T12:40:09;16.80;99.90
7972;DHT22;4031;49.758;6.120;2023-04-24T12:42:41;16.80;99.90
7972;DHT22;4031;49.758;6.120;2023-04-24T12:45:08;17.30;99.90
7972;DHT22;4031;49.758;6.120;2023-04-24T12:47:34;18.10;99.90
7972;DHT22;4031;49.758;6.120;2023-04-24T12:50:01;17.80;99.90
7972;DHT22;4031;49.758;6.120;2023-04-24T12:52:28;17.70;99.90
7972;DHT22;4031;49.758;6.120;2023-04-24T12:54:56;17.70;99.90
7972;DHT22;4031;49.758;6.120;2023-04-24T12:57:24;18.00;99.90
7972;DHT22;4031;49.758;6.120;2023-04-24T12:59:54;18.20;99.90
7972;DHT22;4031;49.758;6.120;2023-04-24T13:02:21;18.30;99.90
7972;DHT22;4031;49.758;6.120;2023-04-24T13:04:48;18.20;99.90
7972;DHT22;4031;49.758;6.120;2023-04-24T13:07:15;18.50;99.90
7972;DHT22;4031;49.758;6.120;2023-04-24T13:09:42;18.20;99.90
7972;DHT22;4031;49.758;6.120;2023-04-24T13:12:08;18.50;99.90
7972;DHT22;4031;49.758;6.120;2023-04-24T13:14:35;19.00;99.90
7972;DHT22;4031;49.758;6.120;2023-04-24T13:17:01;19.20;99.90
7972;DHT22;4031;49.758;6.120;2023-04-24T13:19:28;19.60;99.90
7972;DHT22;4031;49.758;6.120;2023-04-24T13:21:56;19.80;99.90
7972;DHT22;4031;49.758;6.120;2023-04-24T13:24:23;19.80;99.90
7972;DHT22;4031;49.758;6.120;2023-04-24T13:26:55;19.40;99.90
7972;DHT22;4031;49.758;6.120;2023-04-24T13:29:22;18.50;99.90
7972;DHT22;4031;49.758;6.120;2023-04-24T13:31:50;18.00;99.90
7972;DHT22;4031;49.758;6.120;2023-04-24T13:34:18;17.90;99.90
7972;DHT22;4031;49.758;6.120;2023-04-24T13:36:44;17.60;99.90
7972;DHT22;4031;49.758;6.120;2023-04-24T13:39:09;17.20;99.90
7972;DHT22;4031;49.758;6.120;2023-04-24T13:41:36;16.70;99.90
7972;DHT22;4031;49.758;6.120;2023-04-24T13:44:02;16.30;99.90
7972;DHT22;4031;49.758;6.120;2023-04-24T13:46:28;15.80;99.90
7972;DHT22;4031;49.758;6.120;2023-04-24T13:48:54;15.30;99.90
7972;DHT22;4031;49.758;6.120;2023-04-24T13:51:20;14.90;99.90
7972;DHT22;4031;49.758;6.120;2023-04-24T13:53:46;14.50;99.90
7972;DHT22;4031;49.758;6.120;2023-04-24T13:56:11;14.00;99.90
7972;DHT22;4031;49.758;6.120;2023-04-24T13:58:39;13.60;99.90
7972;DHT22;4031;49.758;6.120;2023-04-24T14:01:05;13.20;99.90
7972;DHT22;4031;49.758;6.120;2023-04-24T14:03:30;12.70;99.90
7972;DHT22;4031;49.758;6.120;2023-04-24T14:05:56;12.10;99.90
7972;DHT22;4031;49.758;6.120;2023-04-24T14:08:22;11.70;99.90
7972;DHT22;4031;49.758;6.120;2023-04-24T14:10:48;11.40;99.90
7972;DHT22;4031;49.758;6.120;2023-04-24T14:13:15;11.30;99.90
7972;DHT22;4031;49.758;6.120;2023-04-24T14:15:41;11.10;99.90
7972;DHT22;4031;49.758;6.120;2023-04-24T14:18:07;11.10;99.90
7972;DHT22;4031;49.758;6.120;2023-04-24T14:20:33;11.10;99.90
7972;DHT22;4031;49.758;6.120;2023-04-24T14:22:58;11.30;99.90
7972;DHT22;4031;49.758;6.120;2023-04-24T14:25:25;11.50;99.90
7972;DHT22;4031;49.758;6.120;2023-04-24T14:27:51;12.10;99.90
7972;DHT22;4031;49.758;6.120;2023-04-24T14:30:17;12.90;99.90
7972;DHT22;4031;49.758;6.120;2023-04-24T14:32:43;12.90;99.90
7972;DHT22;4031;49.758;6.120;2023-04-24T14:35:09;12.80;99.90
7972;DHT22;4031;49.758;6.120;2023-04-24T14:37:34;13.10;99.90
7972;DHT22;4031;49.758;6.120;2023-04-24T14:40:01;13.50;99.90
7972;DHT22;4031;49.758;6.120;2023-04-24T14:42:27;13.80;99.90
7972;DHT22;4031;49.758;6.120;2023-04-24T14:44:54;13.80;99.90
7972;DHT22;4031;49.758;6.120;2023-04-24T14:47:20;13.70;99.90
7972;DHT22;4031;49.758;6.120;2023-04-24T14:49:48;13.60;99.90
7972;DHT22;4031;49.758;6.120;2023-04-24T14:52:14;13.30;99.90
7972;DHT22;4031;49.758;6.120;2023-04-24T14:54:41;12.90;99.90
7972;DHT22;4031;49.758;6.120;2023-04-24T14:57:07;12.50;99.90
7972;DHT22;4031;49.758;6.120;2023-04-24T14:59:33;12.20;99.90
7972;DHT22;4031;49.758;6.120;2023-04-24T15:01:59;12.00;99.90
7972;DHT22;4031;49.758;6.120;2023-04-24T15:04:25;11.80;99.90
7972;DHT22;4031;49.758;6.120;2023-04-24T15:06:51;11.80;99.90
7972;DHT22;4031;49.758;6.120;2023-04-24T15:09:19;11.80;99.90
7972;DHT22;4031;49.758;6.120;2023-04-24T15:11:46;11.80;99.90
7972;DHT22;4031;49.758;6.120;2023-04-24T15:14:12;11.40;99.90
7972;DHT22;4031;49.758;6.120;2023-04-24T15:16:38;11.20;99.90
7972;DHT22;4031;49.758;6.120;2023-04-24T15:19:03;11.00;99.90
7972;DHT22;4031;49.758;6.120;2023-04-24T15:21:29;11.10;99.90
7972;DHT22;4031;49.758;6.120;2023-04-24T15:23:55;11.90;99.90
7972;DHT22;4031;49.758;6.120;2023-04-24T15:26:22;12.70;99.90
7972;DHT22;4031;49.758;6.120;2023-04-24T15:28:48;13.50;99.90
7972;DHT22;4031;49.758;6.120;2023-04-24T15:31:14;14.10;99.90
7972;DHT22;4031;49.758;6.120;2023-04-24T15:33:40;14.10;99.90
7972;DHT22;4031;49.758;6.120;2023-04-24T15:36:06;14.00;99.90
7972;DHT22;4031;49.758;6.120;2023-04-24T15:38:32;13.70;99.90
7972;DHT22;4031;49.758;6.120;2023-04-24T15:40:58;13.40;99.90
7972;DHT22;4031;49.758;6.120;2023-04-24T15:43:23;13.10;99.90
7972;DHT22;4031;49.758;6.120;2023-04-24T15:45:50;12.90;99.90
7972;DHT22;4031;49.758;6.120;2023-04-24T15:48:16;12.80;99.90
7972;DHT22;4031;49.758;6.120;2023-04-24T15:50:42;12.90;99.90
7972;DHT22;4031;49.758;6.120;2023-04-24T15:53:07;12.70;99.90
7972;DHT22;4031;49.758;6.120;2023-04-24T15:55:33;12.60;99.90
7972;DHT22;4031;49.758;6.120;2023-04-24T15:58:00;12.50;99.90
7972;DHT22;4031;49.758;6.120;2023-04-24T16:00:26;12.40;99.90
7972;DHT22;4031;49.758;6.120;2023-04-24T16:02:59;12.40;99.90
7972;DHT22;4031;49.758;6.120;2023-04-24T16:05:25;12.50;99.90
7972;DHT22;4031;49.758;6.120;2023-04-24T16:07:51;12.70;99.90
7972;DHT22;4031;49.758;6.120;2023-04-24T16:10:17;12.70;99.90
7972;DHT22;4031;49.758;6.120;2023-04-24T16:12:42;12.80;99.90
7972;DHT22;4031;49.758;6.120;2023-04-24T16:15:09;12.60;99.90
7972;DHT22;4031;49.758;6.120;2023-04-24T16:17:35;12.40;99.90
7972;DHT22;4031;49.758;6.120;2023-04-24T16:20:02;12.20;99.90
7972;DHT22;4031;49.758;6.120;2023-04-24T16:22:29;12.10;99.90
7972;DHT22;4031;49.758;6.120;2023-04-24T16:24:55;12.20;99.90